< < Back
Terminal Aerodrome Forecast


Current Version              Previous Versions:   1  2  3  4  5  6  7  8  9  

Terminal Aerodrome Forecast

032
FTUS42 KJAX 291121
TAFGNV
TAF
KGNV 291121Z 2912/3012 VRB03KT P6SM SCT250
      TEMPO 2912/2913 4SM BR
     FM291600 09009KT P6SM SCT040 SCT250
     FM300100 08004KT P6SM SCT250=

Latest METAR

426
SAUS70 KWBC 291600 RRD
MTRGNV
METAR KGNV 291553Z 10009KT 10SM SCT038 28/17 A3016 RMK AO2 SLP209
T02780172 $


USA.gov is the U.S. government's official web portal to all federal, state and local government web resources and services.